createdAt,value
2017-12-29T00:00:43.383Z,43.18
2017-12-29T00:03:09.283Z,43.37
2017-12-29T00:05:35.227Z,43.42
2017-12-29T00:08:01.147Z,43.45
2017-12-29T00:10:27.059Z,43.63
2017-12-29T00:12:52.954Z,43.27
2017-12-29T00:15:18.880Z,43.50
2017-12-29T00:17:44.803Z,43.31
2017-12-29T00:20:10.731Z,43.64
2017-12-29T00:22:36.630Z,43.36
2017-12-29T00:25:02.566Z,43.33
2017-12-29T00:27:28.517Z,43.53
2017-12-29T00:29:54.434Z,43.31
2017-12-29T00:32:20.375Z,43.58
2017-12-29T00:34:46.266Z,43.55
2017-12-29T00:37:12.170Z,43.13
2017-12-29T00:39:38.130Z,43.41
2017-12-29T00:42:04.019Z,43.30
2017-12-29T00:44:29.948Z,43.38
2017-12-29T00:46:55.848Z,43.44
2017-12-29T00:49:21.755Z,43.62
2017-12-29T00:51:47.658Z,43.67
2017-12-29T00:54:13.574Z,43.74
2017-12-29T00:56:39.471Z,43.59
2017-12-29T00:59:06.642Z,43.44
2017-12-29T01:01:32.543Z,43.35
2017-12-29T01:03:58.435Z,43.49
2017-12-29T01:06:24.346Z,43.34
2017-12-29T01:08:50.242Z,43.46
2017-12-29T01:11:16.154Z,43.44
2017-12-29T01:13:42.058Z,43.28
2017-12-29T01:16:07.962Z,43.69
2017-12-29T01:18:33.888Z,43.13
2017-12-29T01:20:59.795Z,43.25
2017-12-29T01:23:25.706Z,43.52
2017-12-29T01:25:51.592Z,43.38
2017-12-29T01:28:17.526Z,43.57
2017-12-29T01:30:43.437Z,43.92
2017-12-29T01:33:09.342Z,43.49
2017-12-29T01:35:35.272Z,43.45
2017-12-29T01:38:01.191Z,43.47
2017-12-29T01:40:27.082Z,43.60
2017-12-29T01:42:52.970Z,43.28
2017-12-29T01:45:18.891Z,43.30
2017-12-29T01:47:44.786Z,43.24
2017-12-29T01:50:10.719Z,43.80
2017-12-29T01:52:36.668Z,43.66
2017-12-29T01:55:02.716Z,43.44
2017-12-29T01:57:28.615Z,43.42
2017-12-29T01:59:54.506Z,43.27
2017-12-29T02:02:20.432Z,43.55
2017-12-29T02:04:46.316Z,43.24
2017-12-29T02:07:12.250Z,43.36
2017-12-29T02:12:08.786Z,43.75
2017-12-29T02:14:34.685Z,43.64
2017-12-29T02:17:00.575Z,43.46
2017-12-29T02:19:26.488Z,43.44
2017-12-29T02:21:52.366Z,43.33
2017-12-29T02:24:18.294Z,43.77
2017-12-29T02:26:44.203Z,43.64
2017-12-29T02:29:10.082Z,43.66
2017-12-29T02:31:35.998Z,43.35
2017-12-29T02:34:01.915Z,43.35
2017-12-29T02:36:27.938Z,43.59
2017-12-29T02:38:54.165Z,43.36
2017-12-29T02:41:20.103Z,43.57
2017-12-29T02:43:45.991Z,43.80
2017-12-29T02:46:11.901Z,43.35
2017-12-29T02:48:38.026Z,43.66
2017-12-29T02:51:03.956Z,43.94
2017-12-29T02:53:29.846Z,43.58
2017-12-29T02:55:55.927Z,43.40
2017-12-29T02:58:21.822Z,43.73
2017-12-29T03:00:47.730Z,43.71
2017-12-29T03:03:13.649Z,43.39
2017-12-29T03:05:39.575Z,43.37
2017-12-29T03:10:35.946Z,43.36
2017-12-29T03:13:01.839Z,43.53
2017-12-29T03:15:27.767Z,43.69
2017-12-29T03:17:53.663Z,43.51
2017-12-29T03:20:19.619Z,43.61
2017-12-29T03:22:45.542Z,43.53
2017-12-29T03:25:11.776Z,43.41
2017-12-29T03:27:37.666Z,43.37
2017-12-29T03:30:03.601Z,43.79
2017-12-29T03:32:29.503Z,43.49
2017-12-29T03:34:56.003Z,43.28
2017-12-29T03:37:21.894Z,43.74
2017-12-29T03:39:47.815Z,43.62
2017-12-29T03:42:13.732Z,43.25
2017-12-29T03:44:39.639Z,43.25
2017-12-29T03:47:05.562Z,43.65
2017-12-29T03:49:31.983Z,43.70
2017-12-29T03:51:57.894Z,43.33
2017-12-29T03:54:23.778Z,43.25
2017-12-29T03:56:49.705Z,43.75
2017-12-29T03:59:15.627Z,43.18
2017-12-29T04:01:41.532Z,43.74
2017-12-29T04:04:07.601Z,43.88
2017-12-29T04:06:33.482Z,43.45
2017-12-29T04:08:59.383Z,43.72
2017-12-29T04:11:25.307Z,43.09
2017-12-29T04:13:51.201Z,43.38
2017-12-29T04:16:17.087Z,43.64
2017-12-29T04:18:43.007Z,43.24
2017-12-29T04:21:08.919Z,43.59
2017-12-29T04:23:34.826Z,43.59
2017-12-29T04:26:00.716Z,43.36
2017-12-29T04:28:26.622Z,43.13
2017-12-29T04:30:52.543Z,43.44
2017-12-29T04:33:18.448Z,43.71
2017-12-29T04:35:44.359Z,43.15
2017-12-29T04:38:10.247Z,43.79
2017-12-29T04:40:36.163Z,43.34
2017-12-29T04:43:02.071Z,43.28
2017-12-29T04:45:27.979Z,43.62
2017-12-29T04:47:54.055Z,43.47
2017-12-29T04:50:19.938Z,43.28
2017-12-29T04:52:45.878Z,43.57
2017-12-29T04:55:11.766Z,43.53
2017-12-29T04:57:37.679Z,43.82
2017-12-29T05:00:03.599Z,43.66
2017-12-29T05:02:29.495Z,43.26
2017-12-29T05:04:55.414Z,43.68
2017-12-29T05:07:21.318Z,43.55
2017-12-29T05:09:47.439Z,43.41
2017-12-29T05:12:13.946Z,43.41
2017-12-29T05:14:39.865Z,43.71
2017-12-29T05:17:05.862Z,43.58
2017-12-29T05:19:31.754Z,43.34
2017-12-29T05:21:57.666Z,43.45
2017-12-29T05:24:23.643Z,43.64
2017-12-29T05:26:49.506Z,43.44
2017-12-29T05:29:15.391Z,43.18
2017-12-29T05:31:41.306Z,43.27
2017-12-29T05:34:07.527Z,43.59
2017-12-29T05:36:33.431Z,43.49
2017-12-29T05:38:59.327Z,43.38
2017-12-29T05:41:25.227Z,43.32
2017-12-29T05:43:51.110Z,42.99
2017-12-29T05:46:17.027Z,43.44
2017-12-29T05:48:42.944Z,43.02
2017-12-29T05:51:08.823Z,43.37
2017-12-29T05:53:34.775Z,42.96
2017-12-29T05:56:00.674Z,42.96
2017-12-29T05:58:26.677Z,43.04
2017-12-29T06:00:52.620Z,42.93
2017-12-29T06:03:18.511Z,43.04
2017-12-29T06:05:44.432Z,42.91
2017-12-29T06:08:10.331Z,42.98
2017-12-29T06:10:36.251Z,43.20
2017-12-29T06:13:02.171Z,43.11
2017-12-29T06:15:28.080Z,43.18
2017-12-29T06:17:54.059Z,42.98
2017-12-29T06:20:19.972Z,43.29
2017-12-29T06:22:45.914Z,43.29
2017-12-29T06:25:11.807Z,43.17
2017-12-29T06:27:37.699Z,43.35
2017-12-29T06:30:03.631Z,43.34
2017-12-29T06:32:29.518Z,42.94
2017-12-29T06:34:55.439Z,43.22
2017-12-29T06:37:21.335Z,43.27
2017-12-29T06:39:47.226Z,43.27
2017-12-29T06:42:13.145Z,43.18
2017-12-29T06:44:39.039Z,42.94
2017-12-29T06:47:04.963Z,43.27
2017-12-29T06:49:30.863Z,43.25
2017-12-29T06:51:56.772Z,43.06
2017-12-29T06:54:22.930Z,43.22
2017-12-29T06:56:48.828Z,42.76
2017-12-29T06:59:14.719Z,42.93
2017-12-29T07:01:40.663Z,43.10
2017-12-29T07:04:06.587Z,43.18
2017-12-29T07:06:32.485Z,43.28
2017-12-29T07:08:58.411Z,42.70
2017-12-29T07:11:24.339Z,42.93
2017-12-29T07:13:50.238Z,42.79
2017-12-29T07:16:16.154Z,42.38
2017-12-29T07:18:42.038Z,42.78
2017-12-29T07:21:07.959Z,42.49
2017-12-29T07:23:33.843Z,42.43
2017-12-29T07:25:59.767Z,42.57
2017-12-29T07:28:25.658Z,42.39
2017-12-29T07:30:51.548Z,42.34
2017-12-29T07:33:17.620Z,42.65
2017-12-29T07:35:43.548Z,42.43
2017-12-29T07:38:09.447Z,42.25
2017-12-29T07:40:35.357Z,42.11
2017-12-29T07:43:01.259Z,42.21
2017-12-29T07:45:27.178Z,42.17
2017-12-29T07:47:53.093Z,42.60
2017-12-29T07:50:18.990Z,42.50
2017-12-29T07:52:45.042Z,42.50
2017-12-29T07:55:10.942Z,42.63
2017-12-29T07:57:36.834Z,42.19
2017-12-29T08:00:02.823Z,42.19
2017-12-29T08:02:28.728Z,42.63
2017-12-29T08:04:54.639Z,42.69
2017-12-29T08:07:20.575Z,42.69
2017-12-29T08:09:46.475Z,42.15
2017-12-29T08:12:12.371Z,42.81
2017-12-29T08:14:38.286Z,42.27
2017-12-29T08:17:04.174Z,42.53
2017-12-29T08:19:30.087Z,42.69
2017-12-29T08:21:55.991Z,42.51
2017-12-29T08:24:21.917Z,42.67
2017-12-29T08:26:47.823Z,42.26
2017-12-29T08:29:13.762Z,42.78
2017-12-29T08:31:39.702Z,42.58
2017-12-29T08:34:05.682Z,42.61
2017-12-29T08:36:31.646Z,42.20
2017-12-29T08:38:57.543Z,42.25
2017-12-29T08:41:23.439Z,42.61
2017-12-29T08:43:49.360Z,42.28
2017-12-29T08:46:15.242Z,42.78
2017-12-29T08:48:41.167Z,42.25
2017-12-29T08:51:07.099Z,42.68
2017-12-29T08:53:32.994Z,42.67
2017-12-29T08:55:58.943Z,42.79
2017-12-29T08:58:24.854Z,42.20
2017-12-29T09:00:50.782Z,42.83
2017-12-29T09:03:16.670Z,42.72
2017-12-29T09:05:42.567Z,42.87
2017-12-29T09:08:08.523Z,42.88
2017-12-29T09:10:34.414Z,42.51
2017-12-29T09:13:00.348Z,42.67
2017-12-29T09:15:26.277Z,42.61
2017-12-29T09:17:52.183Z,42.37
2017-12-29T09:20:18.074Z,42.70
2017-12-29T09:22:44.304Z,42.36
2017-12-29T09:25:10.204Z,42.44
2017-12-29T09:27:36.107Z,42.37
2017-12-29T09:30:02.055Z,42.09
2017-12-29T09:32:27.963Z,42.36
2017-12-29T09:34:53.871Z,42.13
2017-12-29T09:37:19.775Z,42.72
2017-12-29T09:39:45.723Z,42.62
2017-12-29T09:42:11.618Z,42.51
2017-12-29T09:44:37.507Z,42.69
2017-12-29T09:47:03.435Z,42.52
2017-12-29T09:49:29.343Z,42.25
2017-12-29T09:51:55.322Z,42.47
2017-12-29T09:54:21.257Z,42.30
2017-12-29T09:56:47.154Z,42.54
2017-12-29T09:59:13.059Z,42.73
2017-12-29T10:01:39.001Z,42.32
2017-12-29T10:04:04.896Z,42.30
2017-12-29T10:06:30.821Z,42.63
2017-12-29T10:08:56.927Z,42.61
2017-12-29T10:11:22.813Z,42.52
2017-12-29T10:13:48.731Z,42.37
2017-12-29T10:16:14.635Z,42.51
2017-12-29T10:18:40.554Z,42.59
2017-12-29T10:21:06.586Z,42.23
2017-12-29T10:23:32.504Z,42.37
2017-12-29T10:25:58.435Z,42.58
2017-12-29T10:28:24.326Z,42.35
2017-12-29T10:30:50.501Z,42.37
2017-12-29T10:33:16.719Z,42.58
2017-12-29T10:35:42.863Z,42.21
2017-12-29T10:38:08.763Z,42.31
2017-12-29T10:40:34.672Z,42.50
2017-12-29T10:43:00.595Z,42.50
2017-12-29T10:45:26.575Z,42.43
2017-12-29T10:47:52.494Z,42.90
2017-12-29T10:50:18.400Z,42.60
2017-12-29T10:52:44.283Z,42.94
2017-12-29T10:55:10.208Z,43.00
2017-12-29T10:57:36.103Z,42.77
2017-12-29T11:00:02.073Z,43.36
2017-12-29T11:02:28.055Z,42.81
2017-12-29T11:04:54.051Z,43.37
2017-12-29T11:07:20.053Z,43.48
2017-12-29T11:09:46.047Z,43.10
2017-12-29T11:12:12.054Z,43.37
2017-12-29T11:14:38.095Z,43.25
2017-12-29T11:17:04.015Z,43.38
2017-12-29T11:19:29.983Z,43.26
2017-12-29T11:21:55.923Z,42.76
2017-12-29T11:24:21.895Z,42.95
2017-12-29T11:26:47.915Z,42.75
2017-12-29T11:29:13.838Z,42.66
2017-12-29T11:31:39.898Z,42.54
2017-12-29T11:34:05.847Z,42.94
2017-12-29T11:36:31.806Z,42.48
2017-12-29T11:38:57.734Z,42.52
2017-12-29T11:41:23.642Z,42.91
2017-12-29T11:43:49.579Z,42.69
2017-12-29T11:46:15.503Z,42.54
2017-12-29T11:48:41.394Z,42.97
2017-12-29T11:51:07.319Z,42.68
2017-12-29T11:53:33.246Z,42.73
2017-12-29T11:55:59.587Z,42.66
2017-12-29T11:58:26.592Z,42.22
2017-12-29T12:00:52.642Z,42.83
2017-12-29T12:03:18.562Z,42.27
2017-12-29T12:05:44.536Z,42.47
2017-12-29T12:08:10.508Z,42.59
2017-12-29T12:10:36.540Z,42.83
2017-12-29T12:13:02.495Z,42.46
2017-12-29T12:15:28.412Z,42.34
2017-12-29T12:17:54.379Z,42.41
2017-12-29T12:20:20.334Z,42.29
2017-12-29T12:22:46.263Z,42.73
2017-12-29T12:25:12.213Z,42.55
2017-12-29T12:27:38.167Z,42.75
2017-12-29T12:30:04.104Z,42.83
2017-12-29T12:32:30.077Z,42.38
2017-12-29T12:34:56.097Z,42.80
2017-12-29T12:37:22.028Z,42.84
2017-12-29T12:39:48.014Z,42.50
2017-12-29T12:42:13.939Z,42.39
2017-12-29T12:44:39.915Z,42.36
2017-12-29T12:47:05.814Z,42.66
2017-12-29T12:49:31.813Z,42.81
2017-12-29T12:51:57.825Z,42.79
2017-12-29T12:54:23.766Z,42.45
2017-12-29T12:56:49.735Z,42.63
2017-12-29T12:59:15.668Z,42.39
2017-12-29T13:01:41.630Z,42.70
2017-12-29T13:04:07.546Z,42.62
2017-12-29T13:06:33.504Z,42.29
2017-12-29T13:08:59.575Z,42.49
2017-12-29T13:11:25.514Z,42.25
2017-12-29T13:13:51.459Z,42.70
2017-12-29T13:16:17.386Z,42.38
2017-12-29T13:18:43.363Z,42.68
2017-12-29T13:21:09.282Z,42.73
2017-12-29T13:23:35.251Z,42.12
2017-12-29T13:26:01.251Z,42.29
2017-12-29T13:28:27.314Z,42.28
2017-12-29T13:30:53.286Z,42.23
2017-12-29T13:33:19.245Z,42.37
2017-12-29T13:35:45.171Z,42.67
2017-12-29T13:38:11.118Z,42.71
2017-12-29T13:40:37.246Z,42.36
2017-12-29T13:43:04.252Z,42.48
2017-12-29T13:45:30.191Z,42.22
2017-12-29T13:47:56.162Z,42.45
2017-12-29T13:50:22.112Z,42.34
2017-12-29T13:52:48.039Z,42.44
2017-12-29T13:55:14.088Z,42.19
2017-12-29T13:57:40.116Z,42.36
2017-12-29T14:00:06.081Z,42.33
2017-12-29T14:02:32.018Z,41.51
2017-12-29T14:04:57.924Z,40.82
2017-12-29T14:07:23.983Z,41.10
2017-12-29T14:09:49.969Z,41.13
2017-12-29T14:12:15.913Z,41.53
2017-12-29T14:14:41.871Z,39.69
2017-12-29T14:17:07.911Z,38.89
2017-12-29T14:19:33.855Z,39.23
2017-12-29T14:21:59.763Z,39.59
2017-12-29T14:24:25.753Z,40.27
2017-12-29T14:26:51.670Z,40.15
2017-12-29T14:29:17.650Z,40.50
2017-12-29T14:31:43.735Z,40.67
2017-12-29T14:34:09.755Z,40.48
2017-12-29T14:36:36.090Z,40.72
2017-12-29T14:39:02.138Z,40.94
2017-12-29T14:41:28.069Z,41.20
2017-12-29T14:43:54.083Z,41.24
2017-12-29T14:46:20.013Z,41.30
2017-12-29T14:48:47.079Z,41.23
2017-12-29T14:51:13.118Z,41.05
2017-12-29T14:53:40.521Z,41.35
2017-12-29T14:56:06.516Z,40.76
2017-12-29T14:58:32.437Z,40.86
2017-12-29T15:00:58.449Z,40.90
2017-12-29T15:03:24.368Z,40.69
2017-12-29T15:05:50.371Z,40.67
2017-12-29T15:08:16.379Z,41.11
2017-12-29T15:10:42.310Z,41.46
2017-12-29T15:13:08.263Z,42.00
2017-12-29T15:15:34.263Z,41.57
2017-12-29T15:18:00.207Z,41.27
2017-12-29T15:20:26.114Z,41.77
2017-12-29T15:22:52.071Z,42.41
2017-12-29T15:25:18.199Z,41.57
2017-12-29T15:27:44.182Z,41.14
2017-12-29T15:30:10.129Z,41.22
2017-12-29T15:32:36.094Z,41.50
2017-12-29T15:35:02.243Z,41.59
2017-12-29T15:37:28.237Z,41.88
2017-12-29T15:39:54.163Z,41.65
2017-12-29T15:42:20.106Z,41.32
2017-12-29T15:44:46.019Z,42.04
2017-12-29T15:47:11.903Z,41.54
2017-12-29T15:49:37.845Z,41.57
2017-12-29T15:52:03.799Z,41.32
2017-12-29T15:54:29.758Z,41.41
2017-12-29T15:56:55.762Z,41.33
2017-12-29T15:59:21.699Z,42.01
2017-12-29T16:04:18.067Z,41.60
2017-12-29T16:06:44.063Z,41.45
2017-12-29T16:09:11.080Z,42.00
2017-12-29T16:11:37.035Z,41.91
2017-12-29T16:14:02.993Z,41.54
2017-12-29T16:16:28.968Z,41.86
2017-12-29T16:18:54.931Z,41.56
2017-12-29T16:21:20.907Z,41.71
2017-12-29T16:23:46.828Z,42.09
2017-12-29T16:26:12.762Z,42.23
2017-12-29T16:28:38.731Z,42.10
2017-12-29T16:31:04.643Z,41.68
2017-12-29T16:33:30.538Z,41.70
2017-12-29T16:35:56.480Z,41.87
2017-12-29T16:38:22.460Z,41.99
2017-12-29T16:40:48.358Z,41.69
2017-12-29T16:43:14.307Z,42.19
2017-12-29T16:45:40.278Z,42.06
2017-12-29T16:48:06.263Z,41.75
2017-12-29T16:50:32.275Z,41.74
2017-12-29T16:52:58.221Z,42.14
2017-12-29T16:55:24.111Z,42.18
2017-12-29T16:57:50.040Z,42.26
2017-12-29T17:00:16.023Z,42.45
2017-12-29T17:02:41.979Z,42.61
2017-12-29T17:05:07.873Z,42.28
2017-12-29T17:07:33.804Z,42.29
2017-12-29T17:12:30.263Z,42.20
2017-12-29T17:14:56.596Z,41.84
2017-12-29T17:17:22.495Z,42.04
2017-12-29T17:19:48.388Z,41.80
2017-12-29T17:22:14.314Z,42.14
2017-12-29T17:24:40.252Z,42.39
2017-12-29T17:27:06.231Z,42.38
2017-12-29T17:29:32.152Z,42.43
2017-12-29T17:31:58.226Z,42.48
2017-12-29T17:34:24.284Z,42.44
2017-12-29T17:36:50.210Z,41.49
2017-12-29T17:39:16.182Z,39.64
2017-12-29T17:41:42.115Z,39.84
2017-12-29T17:47:37.591Z,39.47
2017-12-29T17:50:04.796Z,39.29
2017-12-29T17:52:31.997Z,39.38
2017-12-29T17:54:59.080Z,39.63
2017-12-29T17:57:26.124Z,39.41
2017-12-29T17:59:53.143Z,39.62
2017-12-29T18:02:20.328Z,39.78
2017-12-29T18:04:47.306Z,40.02
2017-12-29T18:07:14.390Z,39.73
2017-12-29T18:09:41.576Z,40.25
2017-12-29T18:12:08.535Z,39.89
2017-12-29T18:14:35.791Z,40.13
2017-12-29T18:17:02.778Z,40.11
2017-12-29T18:19:29.742Z,40.07
2017-12-29T18:21:57.258Z,40.33
2017-12-29T18:24:24.421Z,40.43
2017-12-29T18:26:51.535Z,40.25
2017-12-29T18:29:18.578Z,41.22
2017-12-29T18:31:45.602Z,40.79
2017-12-29T18:34:12.670Z,40.86
2017-12-29T18:36:39.714Z,41.31
2017-12-29T18:39:06.780Z,41.06
2017-12-29T18:41:33.798Z,41.25
2017-12-29T18:44:00.842Z,41.07
2017-12-29T18:46:27.774Z,41.02
2017-12-29T18:48:54.674Z,41.07
2017-12-29T18:51:21.584Z,40.82
2017-12-29T18:53:48.451Z,40.58
2017-12-29T18:56:15.379Z,40.87
2017-12-29T18:58:42.243Z,41.15
2017-12-29T19:01:09.130Z,41.18
2017-12-29T19:03:36.038Z,41.78
2017-12-29T19:06:02.920Z,41.59
2017-12-29T19:08:29.791Z,41.53
2017-12-29T19:10:56.917Z,41.66
2017-12-29T19:13:24.132Z,41.38
2017-12-29T19:15:51.100Z,41.32
2017-12-29T19:18:18.023Z,41.42
2017-12-29T19:20:44.999Z,41.41
2017-12-29T19:23:12.963Z,42.04
2017-12-29T19:25:39.859Z,41.91
2017-12-29T19:28:06.831Z,41.94
2017-12-29T19:30:33.809Z,41.74
2017-12-29T19:33:00.798Z,41.60
2017-12-29T19:35:27.672Z,42.26
2017-12-29T19:37:54.547Z,42.00
2017-12-29T19:40:21.449Z,41.85
2017-12-29T19:42:48.359Z,42.05
2017-12-29T19:45:15.230Z,41.80
2017-12-29T19:47:42.462Z,42.49
2017-12-29T19:50:09.766Z,41.85
2017-12-29T19:52:36.879Z,40.61
2017-12-29T19:55:04.003Z,40.10
2017-12-29T19:57:31.660Z,40.81
2017-12-29T19:59:58.555Z,40.25
2017-12-29T20:02:25.427Z,39.51
2017-12-29T20:04:52.506Z,39.72
2017-12-29T20:07:19.418Z,40.31
2017-12-29T20:09:46.280Z,40.41
2017-12-29T20:12:13.180Z,40.48
2017-12-29T20:14:40.067Z,39.30
2017-12-29T20:17:06.987Z,39.28
2017-12-29T20:19:33.856Z,39.15
2017-12-29T20:23:15.067Z,40.59
2017-12-29T20:25:42.230Z,41.14
2017-12-29T20:28:09.084Z,40.73
2017-12-29T20:30:35.968Z,41.17
2017-12-29T20:33:02.851Z,41.19
2017-12-29T20:35:29.743Z,41.13
2017-12-29T20:37:56.609Z,40.91
2017-12-29T20:40:23.495Z,41.23
2017-12-29T20:42:50.388Z,41.05
2017-12-29T20:45:17.322Z,41.89
2017-12-29T20:47:44.259Z,41.68
2017-12-29T20:50:11.199Z,41.62
2017-12-29T20:52:38.327Z,42.00
2017-12-29T20:55:06.313Z,42.27
2017-12-29T20:57:33.175Z,41.81
2017-12-29T21:00:00.147Z,42.39
2017-12-29T21:02:27.102Z,42.03
2017-12-29T21:04:54.102Z,42.04
2017-12-29T21:07:21.060Z,42.33
2017-12-29T21:09:48.247Z,42.55
2017-12-29T21:12:15.227Z,42.45
2017-12-29T21:14:42.162Z,42.62
2017-12-29T21:17:09.156Z,42.48
2017-12-29T21:19:36.187Z,42.47
2017-12-29T21:22:03.131Z,42.14
2017-12-29T21:24:30.079Z,42.30
2017-12-29T21:26:56.985Z,42.24
2017-12-29T21:29:23.963Z,42.48
2017-12-29T21:31:50.920Z,42.17
2017-12-29T21:34:17.851Z,42.30
2017-12-29T21:36:44.776Z,42.53
2017-12-29T21:39:11.718Z,42.48
2017-12-29T21:41:38.618Z,42.64
2017-12-29T21:44:05.580Z,42.55
2017-12-29T21:46:32.575Z,42.32
2017-12-29T21:48:59.474Z,42.97
2017-12-29T21:51:26.411Z,42.87
2017-12-29T21:53:53.334Z,42.76
2017-12-29T21:56:20.294Z,42.73
2017-12-29T21:58:47.295Z,42.40
2017-12-29T22:01:14.187Z,42.77
2017-12-29T22:03:41.078Z,42.84
2017-12-29T22:06:08.028Z,42.46
2017-12-29T22:08:35.015Z,42.64
2017-12-29T22:11:02.015Z,42.92
2017-12-29T22:13:29.019Z,42.84
2017-12-29T22:15:56.027Z,42.47
2017-12-29T22:18:22.899Z,42.79
2017-12-29T22:20:49.875Z,42.88
2017-12-29T22:23:16.757Z,42.95
2017-12-29T22:25:43.661Z,42.84
2017-12-29T22:28:10.596Z,43.03
2017-12-29T22:30:37.565Z,42.64
2017-12-29T22:33:04.508Z,42.77
2017-12-29T22:35:31.454Z,42.70
2017-12-29T22:37:58.460Z,42.63
2017-12-29T22:40:25.346Z,42.46
2017-12-29T22:42:52.219Z,42.94
2017-12-29T22:45:19.334Z,42.52
2017-12-29T22:47:46.283Z,43.04
2017-12-29T22:50:13.219Z,42.59
2017-12-29T22:52:40.199Z,43.00
2017-12-29T22:55:07.071Z,42.90
2017-12-29T22:57:34.016Z,42.98
2017-12-29T23:00:00.910Z,42.81
2017-12-29T23:02:27.883Z,43.18
2017-12-29T23:04:54.831Z,43.01
2017-12-29T23:07:21.806Z,42.95
2017-12-29T23:09:48.772Z,42.88
2017-12-29T23:12:15.675Z,42.65
2017-12-29T23:14:42.831Z,42.88
2017-12-29T23:17:09.783Z,43.10
2017-12-29T23:19:36.698Z,42.98
2017-12-29T23:22:03.615Z,42.69
2017-12-29T23:24:30.582Z,43.32
2017-12-29T23:26:57.523Z,42.89
2017-12-29T23:29:24.438Z,43.01
2017-12-29T23:31:51.338Z,43.23
2017-12-29T23:34:18.231Z,43.26
2017-12-29T23:36:45.175Z,42.78
2017-12-29T23:39:12.154Z,43.14
2017-12-29T23:41:39.093Z,43.14
2017-12-29T23:44:05.966Z,42.82
2017-12-29T23:46:33.036Z,42.91
2017-12-29T23:49:00.004Z,42.77
2017-12-29T23:51:26.968Z,43.14
2017-12-29T23:53:53.883Z,43.09
2017-12-29T23:56:20.851Z,43.05
2017-12-29T23:58:47.791Z,42.93
